createdAt,value
2023-04-10T00:01:12.229Z,45.42
2023-04-10T00:03:39.274Z,45.17
2023-04-10T00:06:07.755Z,45.44
2023-04-10T00:08:34.692Z,45.39
2023-04-10T00:11:01.647Z,45.03
2023-04-10T00:13:28.586Z,45.16
2023-04-10T00:15:55.629Z,45.15
2023-04-10T00:18:22.569Z,45.02
2023-04-10T00:20:49.543Z,45.27
2023-04-10T00:23:16.431Z,45.56
2023-04-10T00:25:43.345Z,45.25
2023-04-10T00:28:10.306Z,45.21
2023-04-10T00:30:37.377Z,45.15
2023-04-10T00:33:04.438Z,45.45
2023-04-10T00:35:31.492Z,45.31
2023-04-10T00:37:58.436Z,45.18
2023-04-10T00:40:25.488Z,45.65
2023-04-10T00:42:52.440Z,45.40
2023-04-10T00:45:19.543Z,45.61
2023-04-10T00:47:46.546Z,45.56
2023-04-10T00:50:13.734Z,45.27
2023-04-10T00:52:40.752Z,45.33
2023-04-10T00:55:08.083Z,45.16
2023-04-10T00:57:35.201Z,45.41
2023-04-10T01:00:02.182Z,45.54
2023-04-10T01:02:29.285Z,45.31
2023-04-10T01:04:56.794Z,45.71
2023-04-10T01:07:25.087Z,45.73
2023-04-10T01:09:58.308Z,45.74
2023-04-10T01:12:28.282Z,45.55
2023-04-10T01:14:58.246Z,45.45
2023-04-10T01:17:28.258Z,45.51
2023-04-10T01:20:00.794Z,45.46
2023-04-10T01:22:34.897Z,45.53
2023-04-10T01:25:09.220Z,45.62
2023-04-10T01:27:43.919Z,45.73
2023-04-10T01:30:13.074Z,45.54
2023-04-10T01:32:40.800Z,45.95
2023-04-10T01:35:09.008Z,45.95
2023-04-10T01:37:41.281Z,45.53
2023-04-10T01:40:09.753Z,45.85
2023-04-10T01:42:40.390Z,46.03
2023-04-10T01:45:08.623Z,45.61
2023-04-10T01:47:35.646Z,45.75
2023-04-10T01:50:04.031Z,46.00
2023-04-10T01:52:31.800Z,45.68
2023-04-10T01:54:58.836Z,45.78
2023-04-10T01:57:26.294Z,45.91
2023-04-10T01:59:53.294Z,46.06
2023-04-10T02:02:20.281Z,45.93
2023-04-10T02:04:52.019Z,46.04
2023-04-10T02:07:23.565Z,45.76
2023-04-10T02:09:57.775Z,45.87
2023-04-10T02:12:29.238Z,46.20
2023-04-10T02:14:56.573Z,46.10
2023-04-10T02:17:26.754Z,46.11
2023-04-10T02:19:54.391Z,46.33
2023-04-10T02:22:22.450Z,45.94
2023-04-10T02:24:49.838Z,46.43
2023-04-10T02:27:16.946Z,46.27
2023-04-10T02:29:44.047Z,46.43
2023-04-10T02:32:11.467Z,46.48
2023-04-10T02:34:38.339Z,46.23
2023-04-10T02:37:05.396Z,46.34
2023-04-10T02:39:32.311Z,46.43
2023-04-10T02:41:59.300Z,46.66
2023-04-10T02:44:26.430Z,46.57
2023-04-10T02:46:53.416Z,46.55
2023-04-10T02:49:20.366Z,46.34
2023-04-10T02:51:47.263Z,46.72
2023-04-10T02:54:14.333Z,46.82
2023-04-10T02:56:41.305Z,46.61
2023-04-10T02:59:08.422Z,46.79
2023-04-10T03:01:35.416Z,46.69
2023-04-10T03:04:04.398Z,47.01
2023-04-10T03:06:31.692Z,47.04
2023-04-10T03:08:58.627Z,46.97
2023-04-10T03:11:25.635Z,47.25
2023-04-10T03:13:52.653Z,47.10
2023-04-10T03:16:19.871Z,47.17
2023-04-10T03:18:46.933Z,47.12
2023-04-10T03:21:13.915Z,47.29
2023-04-10T03:23:40.938Z,47.44
2023-04-10T03:26:07.868Z,47.29
2023-04-10T03:28:36.937Z,47.20
2023-04-10T03:31:04.447Z,47.29
2023-04-10T03:33:31.446Z,47.19
2023-04-10T03:35:58.516Z,47.38
2023-04-10T03:38:25.676Z,47.67
2023-04-10T03:40:52.580Z,47.63
2023-04-10T03:43:19.606Z,48.00
2023-04-10T03:45:47.577Z,47.75
2023-04-10T03:48:14.496Z,47.66
2023-04-10T03:50:41.461Z,47.97
2023-04-10T03:53:08.450Z,47.94
2023-04-10T03:55:35.408Z,47.69
2023-04-10T03:58:02.390Z,47.97
2023-04-10T04:00:29.408Z,48.14
2023-04-10T04:02:56.701Z,47.92
2023-04-10T04:05:23.732Z,48.17
2023-04-10T04:07:50.926Z,48.02
2023-04-10T04:10:17.948Z,48.27
2023-04-10T04:12:44.881Z,48.01
2023-04-10T04:15:11.793Z,48.30
2023-04-10T04:17:38.727Z,48.00
2023-04-10T04:20:06.448Z,48.21
2023-04-10T04:22:33.413Z,48.40
2023-04-10T04:25:00.320Z,48.42
2023-04-10T04:27:27.275Z,48.18
2023-04-10T04:29:54.237Z,48.50
2023-04-10T04:32:21.609Z,48.63
2023-04-10T04:34:48.632Z,48.31
2023-04-10T04:37:15.735Z,48.69
2023-04-10T04:39:42.642Z,48.80
2023-04-10T04:42:09.560Z,48.79
2023-04-10T04:44:36.943Z,49.03
2023-04-10T04:47:03.899Z,48.63
2023-04-10T04:49:30.867Z,48.93
2023-04-10T04:51:57.730Z,48.66
2023-04-10T04:54:24.741Z,48.98
2023-04-10T04:56:51.696Z,49.04
2023-04-10T04:59:18.716Z,48.90
2023-04-10T05:01:45.797Z,48.97
2023-04-10T05:04:13.031Z,49.26
2023-04-10T05:06:40.087Z,49.20
2023-04-10T05:09:07.077Z,49.36
2023-04-10T05:11:34.077Z,49.52
2023-04-10T05:14:01.041Z,49.22
2023-04-10T05:16:28.037Z,49.25
2023-04-10T05:18:55.590Z,49.26
2023-04-10T05:21:22.888Z,49.26
2023-04-10T05:23:49.833Z,49.54
2023-04-10T05:26:16.924Z,49.90
2023-04-10T05:28:43.869Z,49.45
2023-04-10T05:31:11.060Z,49.76
2023-04-10T05:33:38.096Z,49.83
2023-04-10T05:36:05.402Z,49.56
2023-04-10T05:38:32.449Z,49.74
2023-04-10T05:40:59.483Z,49.88
2023-04-10T05:43:26.452Z,49.68
2023-04-10T05:45:53.441Z,49.73
2023-04-10T05:48:20.344Z,49.61
2023-04-10T05:50:47.328Z,49.74
2023-04-10T05:53:15.095Z,50.15
2023-04-10T05:55:42.056Z,49.96
2023-04-10T05:58:09.062Z,50.33
2023-04-10T06:00:36.344Z,50.06
2023-04-10T06:03:03.905Z,49.70
2023-04-10T06:05:31.016Z,49.97
2023-04-10T06:07:58.607Z,50.18
2023-04-10T06:10:25.731Z,50.29
2023-04-10T06:12:52.653Z,50.25
2023-04-10T06:15:20.171Z,50.18
2023-04-10T06:17:47.159Z,50.29
2023-04-10T06:20:14.145Z,50.27
2023-04-10T06:22:41.171Z,50.34
2023-04-10T06:25:08.532Z,50.08
2023-04-10T06:27:36.599Z,50.49
2023-04-10T06:30:03.818Z,50.07
2023-04-10T06:32:30.980Z,50.25
2023-04-10T06:34:58.122Z,50.38
2023-04-10T06:37:28.267Z,50.43
2023-04-10T06:40:02.360Z,50.50
2023-04-10T06:42:29.346Z,50.68
2023-04-10T06:44:56.348Z,50.98
2023-04-10T06:47:23.410Z,51.14
2023-04-10T06:49:50.408Z,50.66
2023-04-10T06:52:17.585Z,50.88
2023-04-10T06:54:44.622Z,51.22
2023-04-10T06:57:11.804Z,51.35
2023-04-10T06:59:38.795Z,51.26
2023-04-10T07:02:05.862Z,51.32
2023-04-10T07:04:32.863Z,50.98
2023-04-10T07:06:59.927Z,51.20
2023-04-10T07:09:27.032Z,51.08
2023-04-10T07:11:54.022Z,51.08
2023-04-10T07:14:21.061Z,51.07
2023-04-10T07:16:48.772Z,51.44
2023-04-10T07:19:16.310Z,51.51
2023-04-10T07:21:43.267Z,51.47
2023-04-10T07:24:10.322Z,51.40
2023-04-10T07:26:37.227Z,51.35
2023-04-10T07:29:04.161Z,51.52
2023-04-10T07:31:31.208Z,51.59
2023-04-10T07:33:58.217Z,51.66
2023-04-10T07:36:25.164Z,51.47
2023-04-10T07:38:52.321Z,51.51
2023-04-10T07:41:19.251Z,51.40
2023-04-10T07:43:46.881Z,51.42
2023-04-10T07:46:13.915Z,51.40
2023-04-10T07:48:40.820Z,51.33
2023-04-10T07:51:10.072Z,51.69
2023-04-10T07:53:37.428Z,51.79
2023-04-10T07:56:04.681Z,52.11
2023-04-10T07:58:32.262Z,51.69
2023-04-10T08:00:59.248Z,51.77
2023-04-10T08:03:26.953Z,51.65
2023-04-10T08:05:53.949Z,51.91
2023-04-10T08:08:20.938Z,51.91
2023-04-10T08:10:47.843Z,51.88
2023-04-10T08:13:14.834Z,51.94
2023-04-10T08:15:41.808Z,52.20
2023-04-10T08:18:08.846Z,51.92
2023-04-10T08:20:37.348Z,52.24
2023-04-10T08:23:19.210Z,52.01
2023-04-10T08:25:47.650Z,52.00
2023-04-10T08:28:14.689Z,52.03
2023-04-10T08:30:41.667Z,52.28
2023-04-10T08:33:08.621Z,52.08
2023-04-10T08:35:35.563Z,52.38
2023-04-10T08:38:13.299Z,52.12
2023-04-10T08:40:41.386Z,52.43
2023-04-10T08:43:08.323Z,52.84
2023-04-10T08:45:35.398Z,52.49
2023-04-10T08:48:03.254Z,52.68
2023-04-10T08:50:31.824Z,52.92
2023-04-10T08:53:00.508Z,52.74
2023-04-10T08:55:27.666Z,52.69
2023-04-10T08:58:01.314Z,53.03
2023-04-10T09:00:29.288Z,52.82
2023-04-10T09:02:58.873Z,52.75
2023-04-10T09:05:27.575Z,53.09
2023-04-10T09:07:54.588Z,52.89
2023-04-10T09:10:21.663Z,53.14
2023-04-10T09:12:49.374Z,53.15
2023-04-10T09:15:17.321Z,53.08
2023-04-10T09:17:47.428Z,53.40
2023-04-10T09:20:17.515Z,53.21
2023-04-10T09:22:44.500Z,53.72
2023-04-10T09:25:28.487Z,53.73
2023-04-10T09:27:58.565Z,53.71
2023-04-10T09:30:33.723Z,53.40
2023-04-10T09:33:02.051Z,53.43
2023-04-10T09:35:33.540Z,53.73
2023-04-10T09:38:00.684Z,53.63
2023-04-10T09:40:27.658Z,53.67
2023-04-10T09:42:56.520Z,53.63
2023-04-10T09:45:23.594Z,53.62
2023-04-10T09:47:53.621Z,54.03
2023-04-10T09:50:37.786Z,53.97
2023-04-10T09:53:06.812Z,54.38
2023-04-10T09:55:35.459Z,54.51
2023-04-10T09:58:04.123Z,54.31
2023-04-10T10:00:31.362Z,54.45
2023-04-10T10:03:00.112Z,54.24
2023-04-10T10:05:30.881Z,54.23
2023-04-10T10:07:58.561Z,54.33
2023-04-10T10:10:26.431Z,54.18
2023-04-10T10:12:57.694Z,54.47
2023-04-10T10:15:27.983Z,54.23
2023-04-10T10:18:02.984Z,54.70
2023-04-10T10:20:32.885Z,54.86
2023-04-10T10:23:02.904Z,55.11
2023-04-10T10:25:31.457Z,54.90
2023-04-10T10:28:00.770Z,54.70
2023-04-10T10:30:30.533Z,54.90
2023-04-10T10:32:59.485Z,55.15
2023-04-10T10:35:29.856Z,54.94
2023-04-10T10:37:59.048Z,54.93
2023-04-10T10:40:30.649Z,54.82
2023-04-10T10:43:00.666Z,54.73
2023-04-10T10:45:30.692Z,54.79
2023-04-10T10:47:57.834Z,54.79
2023-04-10T10:50:25.108Z,54.68
2023-04-10T10:52:54.512Z,54.91
2023-04-10T10:55:23.509Z,55.21
2023-04-10T10:57:53.538Z,54.97
2023-04-10T11:00:21.573Z,55.28
2023-04-10T11:02:52.058Z,55.69
2023-04-10T11:05:39.238Z,55.03
2023-04-10T11:08:06.835Z,55.34
2023-04-10T11:10:42.731Z,55.49
2023-04-10T11:13:12.737Z,55.74
2023-04-10T11:15:43.745Z,55.52
2023-04-10T11:18:11.103Z,55.19
2023-04-10T11:20:57.958Z,55.61
2023-04-10T11:23:24.982Z,55.11
2023-04-10T11:25:53.255Z,55.25
2023-04-10T11:28:23.274Z,55.94
2023-04-10T11:30:50.507Z,55.49
2023-04-10T11:33:18.407Z,55.57
2023-04-10T11:35:46.965Z,55.69
2023-04-10T11:38:16.550Z,55.57
2023-04-10T11:40:46.675Z,55.77
2023-04-10T11:43:15.297Z,55.32
2023-04-10T11:45:42.574Z,55.50
2023-04-10T11:48:10.186Z,55.65
2023-04-10T11:50:38.048Z,55.91
2023-04-10T11:53:18.290Z,55.51
2023-04-10T11:55:45.331Z,55.66
2023-04-10T11:58:15.375Z,55.72
2023-04-10T12:00:46.176Z,55.72
2023-04-10T12:03:13.381Z,55.53
2023-04-10T12:05:43.723Z,55.19
2023-04-10T12:08:10.929Z,54.86
2023-04-10T12:10:41.135Z,55.05
2023-04-10T12:13:08.223Z,54.90
2023-04-10T12:15:35.950Z,54.56
2023-04-10T12:18:03.089Z,54.74
2023-04-10T12:20:30.308Z,54.29
2023-04-10T12:23:01.740Z,54.36
2023-04-10T12:25:28.815Z,54.56
2023-04-10T12:27:56.039Z,54.54
2023-04-10T12:30:23.231Z,54.33
2023-04-10T12:32:52.906Z,54.71
2023-04-10T12:35:22.052Z,54.31
2023-04-10T12:37:50.431Z,54.73
2023-04-10T12:40:17.948Z,54.43
2023-04-10T12:42:45.111Z,54.78
2023-04-10T12:45:14.970Z,54.59
2023-04-10T12:47:45.930Z,54.89
2023-04-10T12:50:15.047Z,54.62
2023-04-10T12:52:44.044Z,54.57
2023-04-10T12:55:12.221Z,54.79
2023-04-10T12:57:39.828Z,54.56
2023-04-10T13:00:07.564Z,54.53
2023-04-10T13:02:34.665Z,54.57
2023-04-10T13:05:02.329Z,54.51
2023-04-10T13:07:29.363Z,54.47
2023-04-10T13:09:56.529Z,54.71
2023-04-10T13:12:24.293Z,54.60
2023-04-10T13:14:51.710Z,54.22
2023-04-10T13:17:19.164Z,54.32
2023-04-10T13:19:46.391Z,54.60
2023-04-10T13:22:13.763Z,54.19
2023-04-10T13:24:41.279Z,54.59
2023-04-10T13:27:10.013Z,54.90
2023-04-10T13:29:38.915Z,54.61
2023-04-10T13:32:07.721Z,54.40
2023-04-10T13:34:35.624Z,54.82
2023-04-10T13:37:03.544Z,54.43
2023-04-10T13:39:32.125Z,54.29
2023-04-10T13:41:59.980Z,53.76
2023-04-10T13:44:27.232Z,53.97
2023-04-10T13:46:55.088Z,53.69
2023-04-10T13:49:22.578Z,53.35
2023-04-10T13:51:49.941Z,53.38
2023-04-10T13:54:17.849Z,53.43
2023-04-10T13:56:46.811Z,52.84
2023-04-10T13:59:14.444Z,53.04
2023-04-10T14:01:41.575Z,52.65
2023-04-10T14:04:09.172Z,53.01
2023-04-10T14:06:36.512Z,53.27
2023-04-10T14:09:03.783Z,52.83
2023-04-10T14:11:31.005Z,53.37
2023-04-10T14:13:58.261Z,52.93
2023-04-10T14:16:26.039Z,53.05
2023-04-10T14:18:53.358Z,53.44
2023-04-10T14:21:21.952Z,52.97
2023-04-10T14:23:49.068Z,52.94
2023-04-10T14:26:16.351Z,52.84
2023-04-10T14:28:44.132Z,52.69
2023-04-10T14:31:13.046Z,52.92
2023-04-10T14:33:40.310Z,53.05
2023-04-10T14:36:07.609Z,52.43
2023-04-10T14:38:37.146Z,52.94
2023-04-10T14:41:04.493Z,52.50
2023-04-10T14:43:31.629Z,52.26
2023-04-10T14:46:00.608Z,52.57
2023-04-10T14:48:27.801Z,52.14
2023-04-10T14:50:57.194Z,51.96
2023-04-10T14:53:24.814Z,52.12
2023-04-10T14:55:52.180Z,51.66
2023-04-10T14:58:19.458Z,51.79
2023-04-10T15:00:46.695Z,51.47
2023-04-10T15:03:14.128Z,51.04
2023-04-10T15:05:41.466Z,51.20
2023-04-10T15:08:08.715Z,50.87
2023-04-10T15:10:35.987Z,50.77
2023-04-10T15:13:03.192Z,50.75
2023-04-10T15:15:30.687Z,50.65
2023-04-10T15:17:58.483Z,50.41
2023-04-10T15:20:25.809Z,50.59
2023-04-10T15:22:53.274Z,50.21
2023-04-10T15:25:21.815Z,50.06
2023-04-10T15:27:49.162Z,50.02
2023-04-10T15:30:17.904Z,49.52
2023-04-10T15:32:45.319Z,49.54
2023-04-10T15:35:12.532Z,49.85
2023-04-10T15:37:39.795Z,49.46
2023-04-10T15:40:07.437Z,49.57
2023-04-10T15:42:35.387Z,49.74
2023-04-10T15:45:03.175Z,49.58
2023-04-10T15:47:30.861Z,49.57
2023-04-10T15:49:58.332Z,49.40
2023-04-10T15:52:26.186Z,49.37
2023-04-10T15:54:53.624Z,49.54
2023-04-10T15:57:21.189Z,49.17
2023-04-10T15:59:51.877Z,49.26
2023-04-10T16:02:19.134Z,48.88
2023-04-10T16:04:46.388Z,49.05
2023-04-10T16:07:13.734Z,48.69
2023-04-10T16:09:41.343Z,48.70
2023-04-10T16:12:08.912Z,49.00
2023-04-10T16:14:36.016Z,48.85
2023-04-10T16:17:03.155Z,48.76
2023-04-10T16:19:31.438Z,48.80
2023-04-10T16:21:58.667Z,48.57
2023-04-10T16:24:25.891Z,47.93
2023-04-10T16:26:54.633Z,48.17
2023-04-10T16:29:22.086Z,47.48
2023-04-10T16:31:51.650Z,47.62
2023-04-10T16:34:18.900Z,47.45
2023-04-10T16:36:45.992Z,47.61
2023-04-10T16:39:13.112Z,47.38
2023-04-10T16:42:15.208Z,47.38
2023-04-10T16:44:30.102Z,47.47
2023-04-10T16:46:57.498Z,47.50
2023-04-10T16:49:25.278Z,47.53
2023-04-10T16:51:52.756Z,47.25
2023-04-10T16:54:20.000Z,46.92
2023-04-10T16:56:47.182Z,47.12
2023-04-10T16:59:14.264Z,47.50
2023-04-10T17:01:41.429Z,47.33
2023-04-10T17:04:09.635Z,46.93
2023-04-10T17:06:36.884Z,47.32
2023-04-10T17:09:04.016Z,47.21
2023-04-10T17:11:31.166Z,47.02
2023-04-10T17:13:58.136Z,47.33
2023-04-10T17:16:25.187Z,47.31
2023-04-10T17:18:52.602Z,46.82
2023-04-10T17:21:20.005Z,46.75
2023-04-10T17:23:47.186Z,46.93
2023-04-10T17:26:15.097Z,46.61
2023-04-10T17:28:45.487Z,46.84
2023-04-10T17:31:14.256Z,46.65
2023-04-10T17:33:42.471Z,46.67
2023-04-10T17:36:10.488Z,46.37
2023-04-10T17:38:38.242Z,46.72
2023-04-10T17:41:06.042Z,46.26
2023-04-10T17:43:33.950Z,46.65
2023-04-10T17:46:01.314Z,46.35
2023-04-10T17:48:29.133Z,46.31
2023-04-10T17:50:56.206Z,46.30
2023-04-10T17:53:23.320Z,46.14
2023-04-10T17:55:50.298Z,46.07
2023-04-10T17:58:17.256Z,46.28
2023-04-10T18:00:44.325Z,46.27
2023-04-10T18:03:11.687Z,45.91
2023-04-10T18:05:40.175Z,45.84
2023-04-10T18:08:08.399Z,45.62
2023-04-10T18:10:35.757Z,45.78
2023-04-10T18:13:02.793Z,45.78
2023-04-10T18:15:33.367Z,45.64
2023-04-10T18:18:00.604Z,46.14
2023-04-10T18:20:27.826Z,45.57
2023-04-10T18:22:55.397Z,45.61
2023-04-10T18:25:22.640Z,45.73
2023-04-10T18:28:04.459Z,45.82
2023-04-10T18:30:39.387Z,45.96
2023-04-10T18:33:10.764Z,45.93
2023-04-10T18:35:38.687Z,45.54
2023-04-10T18:38:05.966Z,45.71
2023-04-10T18:40:35.126Z,45.50
2023-04-10T18:43:02.150Z,45.63
2023-04-10T18:45:29.467Z,45.79
2023-04-10T18:47:56.540Z,44.95
2023-04-10T18:50:23.578Z,44.93
2023-04-10T18:52:50.676Z,45.10
2023-04-10T18:55:19.284Z,45.27
2023-04-10T18:57:46.416Z,45.02
2023-04-10T19:00:14.063Z,44.86
2023-04-10T19:02:41.339Z,45.10
2023-04-10T19:05:09.747Z,45.19
2023-04-10T19:07:37.154Z,45.27
2023-04-10T19:10:04.628Z,45.17
2023-04-10T19:12:34.424Z,45.17
2023-04-10T19:15:01.797Z,45.19
2023-04-10T19:17:28.965Z,45.24
2023-04-10T19:19:57.408Z,44.88
2023-04-10T19:22:24.743Z,45.14
2023-04-10T19:24:51.833Z,45.10
2023-04-10T19:27:18.949Z,45.21
2023-04-10T19:29:46.090Z,44.95
2023-04-10T19:32:13.626Z,44.97
2023-04-10T19:34:40.817Z,45.20
2023-04-10T19:37:08.035Z,44.98
2023-04-10T19:39:35.203Z,44.84
2023-04-10T19:42:03.637Z,44.64
2023-04-10T19:44:30.759Z,44.74
2023-04-10T19:46:57.937Z,44.69
2023-04-10T19:49:26.223Z,44.38
2023-04-10T19:51:54.994Z,44.86
2023-04-10T19:54:22.040Z,44.76
2023-04-10T19:56:49.181Z,44.53
2023-04-10T19:59:16.308Z,44.15
2023-04-10T20:01:43.489Z,44.18
2023-04-10T20:04:10.710Z,44.09
2023-04-10T20:06:38.055Z,44.15
2023-04-10T20:09:05.394Z,44.45
2023-04-10T20:11:32.730Z,44.31
2023-04-10T20:13:59.883Z,44.15
2023-04-10T20:16:27.254Z,44.08
2023-04-10T20:18:55.233Z,44.10
2023-04-10T20:21:22.678Z,44.32
2023-04-10T20:23:49.906Z,44.62
2023-04-10T20:26:17.661Z,44.38
2023-04-10T20:28:44.935Z,44.23
2023-04-10T20:31:12.554Z,44.53
2023-04-10T20:33:40.018Z,44.63
2023-04-10T20:36:08.312Z,44.43
2023-04-10T20:38:35.494Z,44.71
2023-04-10T20:41:02.742Z,44.44
2023-04-10T20:43:30.011Z,44.63
2023-04-10T20:45:57.256Z,44.79
2023-04-10T20:48:24.466Z,44.98
2023-04-10T20:50:52.159Z,45.28
2023-04-10T20:53:19.276Z,45.30
2023-04-10T20:55:46.621Z,45.29
2023-04-10T20:58:13.661Z,45.05
2023-04-10T21:00:41.474Z,45.45
2023-04-10T21:03:08.697Z,45.39
2023-04-10T21:05:39.365Z,45.46
2023-04-10T21:08:06.484Z,45.47
2023-04-10T21:10:33.472Z,45.46
2023-04-10T21:13:00.741Z,45.66
2023-04-10T21:15:27.925Z,45.81
2023-04-10T21:17:55.060Z,45.77
2023-04-10T21:20:23.541Z,45.38
2023-04-10T21:22:50.556Z,45.79
2023-04-10T21:25:19.072Z,45.97
2023-04-10T21:27:46.272Z,45.93
2023-04-10T21:30:13.542Z,45.78
2023-04-10T21:32:40.730Z,46.12
2023-04-10T21:35:08.674Z,46.04
2023-04-10T21:37:35.657Z,46.06
2023-04-10T21:40:02.680Z,45.81
2023-04-10T21:42:29.892Z,46.30
2023-04-10T21:44:59.049Z,46.18
2023-04-10T21:47:26.010Z,46.35
2023-04-10T21:49:52.939Z,46.03
2023-04-10T21:52:19.970Z,46.07
2023-04-10T21:54:46.889Z,46.38
2023-04-10T21:57:13.854Z,46.26
2023-04-10T21:59:40.804Z,46.11
2023-04-10T22:02:07.916Z,46.27
2023-04-10T22:04:38.919Z,46.32
2023-04-10T22:07:12.527Z,46.22
2023-04-10T22:09:39.499Z,46.20
2023-04-10T22:12:06.631Z,46.08
2023-04-10T22:14:33.645Z,46.12
2023-04-10T22:17:00.940Z,46.33
2023-04-10T22:19:27.946Z,46.42
2023-04-10T22:21:54.903Z,46.41
2023-04-10T22:24:21.919Z,46.21
2023-04-10T22:26:48.845Z,46.22
2023-04-10T22:29:16.641Z,45.92
2023-04-10T22:31:44.647Z,46.37
2023-04-10T22:34:11.818Z,46.02
2023-04-10T22:36:38.764Z,46.44
2023-04-10T22:39:05.749Z,46.22
2023-04-10T22:41:32.952Z,46.30
2023-04-10T22:44:00.050Z,46.35
2023-04-10T22:46:27.145Z,46.55
2023-04-10T22:48:55.033Z,46.40
2023-04-10T22:51:22.162Z,46.15
2023-04-10T22:53:49.093Z,46.55
2023-04-10T22:56:16.130Z,46.56
2023-04-10T22:58:43.120Z,46.39
2023-04-10T23:01:10.257Z,46.29
2023-04-10T23:03:37.356Z,46.21
2023-04-10T23:06:04.534Z,46.35
2023-04-10T23:08:31.476Z,46.14
2023-04-10T23:10:58.542Z,46.19
2023-04-10T23:13:25.974Z,46.19
2023-04-10T23:15:53.461Z,46.35
2023-04-10T23:18:20.718Z,46.30
2023-04-10T23:20:48.129Z,46.19
2023-04-10T23:23:15.393Z,46.44
2023-04-10T23:25:42.667Z,46.41
2023-04-10T23:28:09.628Z,46.27
2023-04-10T23:30:36.753Z,46.13
2023-04-10T23:33:03.760Z,46.27
2023-04-10T23:35:30.716Z,46.71
2023-04-10T23:37:58.122Z,46.23
2023-04-10T23:40:25.082Z,46.26
2023-04-10T23:42:52.139Z,46.38
2023-04-10T23:45:19.064Z,46.70
2023-04-10T23:47:46.039Z,46.42
2023-04-10T23:50:13.066Z,46.74
2023-04-10T23:52:40.049Z,46.30
2023-04-10T23:55:07.209Z,46.34
2023-04-10T23:57:34.111Z,46.54
